Time;durP1;ratioP1;P1;durP2;ratioP2;P2;SDS_P1;SDS_P2;PMS_P1;PMS_P2;Temp;Humidity;BMP_temperature;BMP_pressure;BME280_temperature;BME280_humidity;BME280_pressure;Samples;Min_cycle;Max_cycle;Signal;HPM_P1;HPM_P2
2022/07/04 00:00:55;;;;;;;4.63;4.13;;;27.70;95.00;;;;;;4998923;28;20421;-96
2022/07/04 00:03:21;;;;;;;5.20;4.70;;;27.70;95.30;;;;;;4998708;28;20449;-96
2022/07/04 00:05:46;;;;;;;5.03;4.40;;;27.60;95.50;;;;;;4998963;28;20189;-96
2022/07/04 00:08:12;;;;;;;7.43;5.30;;;27.60;95.50;;;;;;5016485;28;20201;-88
2022/07/04 00:10:38;;;;;;;5.37;4.87;;;27.50;95.80;;;;;;5016608;28;20171;-88
2022/07/04 00:13:04;;;;;;;5.63;4.00;;;27.50;95.60;;;;;;5017826;28;20199;-88
2022/07/04 00:15:29;;;;;;;6.50;5.10;;;27.40;95.70;;;;;;4999217;28;20664;-96
2022/07/04 00:17:55;;;;;;;6.23;5.63;;;27.40;96.20;;;;;;4998574;28;20191;-96
2022/07/04 00:20:21;;;;;;;7.40;4.53;;;27.30;95.90;;;;;;5016275;28;20175;-96
2022/07/04 00:22:46;;;;;;;5.87;5.10;;;27.30;96.20;;;;;;4998607;28;20206;-88
2022/07/04 00:25:12;;;;;;;7.43;5.13;;;27.20;96.10;;;;;;4999083;28;20183;-88
2022/07/04 00:27:38;;;;;;;6.57;4.80;;;27.20;96.30;;;;;;5016292;28;20199;-96
2022/07/04 00:30:04;;;;;;;5.60;4.53;;;27.10;96.40;;;;;;4998680;28;20183;-88
2022/07/04 00:32:30;;;;;;;4.63;4.20;;;27.10;96.50;;;;;;4998534;28;20211;-89
2022/07/04 00:34:55;;;;;;;8.27;5.23;;;27.10;96.90;;;;;;5016529;28;20472;-88
2022/07/04 00:37:21;;;;;;;5.30;4.80;;;27.00;96.90;;;;;;5016703;28;20218;-96
2022/07/04 00:39:47;;;;;;;5.27;4.77;;;26.90;97.00;;;;;;4999376;28;20625;-88
2022/07/04 00:42:13;;;;;;;5.70;5.10;;;26.90;97.10;;;;;;5016360;28;20203;-96
2022/07/04 00:44:39;;;;;;;6.87;5.23;;;26.90;97.40;;;;;;5016943;28;20176;-96
2022/07/04 00:47:06;;;;;;;8.73;5.53;;;26.80;97.50;;;;;;5000320;28;20446;-88
2022/07/04 00:49:32;;;;;;;4.87;4.37;;;26.80;97.60;;;;;;5007777;28;20241;-96
2022/07/04 00:51:59;;;;;;;5.97;5.37;;;26.80;97.60;;;;;;5016527;28;20432;-96
2022/07/04 00:54:29;;;;;;;6.43;5.77;;;26.70;97.70;;;;;;5017865;28;20995;-88
2022/07/04 00:56:56;;;;;;;5.30;4.60;;;26.60;97.80;;;;;;5020578;28;20486;-89
2022/07/04 00:59:22;;;;;;;7.10;4.97;;;26.60;98.10;;;;;;5032967;28;20443;-96
2022/07/04 01:01:48;;;;;;;7.27;5.07;;;26.60;98.00;;;;;;5015808;28;20481;-96
2022/07/04 01:04:14;;;;;;;6.10;4.80;;;26.50;97.40;;;;;;5013741;28;20494;-88
2022/07/04 01:06:40;;;;;;;6.97;6.27;;;26.50;97.40;;;;;;5015041;28;20440;-89
2022/07/04 01:09:05;;;;;;;6.10;5.27;;;26.40;97.30;;;;;;5022146;28;20171;-96
2022/07/04 01:11:31;;;;;;;7.90;4.97;;;26.40;97.30;;;;;;5018800;28;20199;-88
2022/07/04 01:13:58;;;;;;;6.37;5.30;;;26.30;97.30;;;;;;5031801;28;20183;-96
2022/07/04 01:16:27;;;;;;;6.87;4.90;;;26.30;97.60;;;;;;5015106;28;20253;-96
2022/07/04 01:18:54;;;;;;;5.50;4.53;;;26.30;97.20;;;;;;5014024;28;20826;-96
2022/07/04 01:21:20;;;;;;;9.63;4.97;;;26.20;97.20;;;;;;5014776;28;20412;-96
2022/07/04 01:23:46;;;;;;;5.13;4.60;;;26.20;97.20;;;;;;5015217;28;22049;-88
2022/07/04 01:26:12;;;;;;;5.47;4.90;;;26.20;97.40;;;;;;5015215;28;20520;-88
2022/07/04 01:28:38;;;;;;;7.83;4.80;;;26.20;97.70;;;;;;5015171;28;20182;-88
2022/07/04 01:31:05;;;;;;;5.80;5.30;;;26.20;97.90;;;;;;5016659;28;20546;-88
2022/07/04 01:33:31;;;;;;;6.57;5.37;;;26.20;97.90;;;;;;5016048;28;20439;-96
2022/07/04 01:35:57;;;;;;;6.10;5.03;;;26.10;98.00;;;;;;5016192;28;20461;-96
2022/07/04 01:38:23;;;;;;;5.70;4.60;;;26.10;97.90;;;;;;5016522;28;20504;-94
2022/07/04 01:40:49;;;;;;;5.43;4.23;;;26.00;98.10;;;;;;5015631;28;20186;-94
2022/07/04 01:43:14;;;;;;;6.13;4.67;;;26.00;98.20;;;;;;5035365;28;20212;-89
2022/07/04 01:45:40;;;;;;;5.43;4.93;;;26.00;98.30;;;;;;5024348;28;20421;-88
2022/07/04 01:48:11;;;;;;;7.40;5.20;;;26.00;98.30;;;;;;5014467;28;20716;-96
2022/07/04 01:50:37;;;;;;;4.77;3.70;;;25.90;98.40;;;;;;5030186;28;20464;-96
2022/07/04 01:53:04;;;;;;;7.20;5.20;;;25.90;98.80;;;;;;5023472;28;20440;-88
2022/07/04 01:55:30;;;;;;;4.50;4.10;;;25.90;98.40;;;;;;5016121;28;20999;-96
2022/07/04 01:57:56;;;;;;;6.93;4.33;;;25.90;98.10;;;;;;5013385;28;20531;-88
2022/07/04 02:03:08;;;;;;;7.23;4.57;;;25.80;97.70;;;;;;5014422;28;20439;-88
2022/07/04 02:05:34;;;;;;;5.87;4.70;;;25.80;97.50;;;;;;5013482;28;20499;-89
2022/07/04 02:07:59;;;;;;;5.10;4.60;;;25.80;97.50;;;;;;5014174;28;20429;-89
2022/07/04 02:10:25;;;;;;;9.73;4.40;;;25.80;97.50;;;;;;5030052;28;20183;-96
2022/07/04 02:13:03;;;;;;;5.13;4.50;;;25.80;97.40;;;;;;5014383;28;20539;-96
2022/07/04 02:15:39;;;;;;;7.10;4.50;;;25.80;97.40;;;;;;5020648;28;20992;-96
2022/07/04 02:18:07;;;;;;;4.40;3.80;;;25.70;97.30;;;;;;5020093;28;20791;-96
2022/07/04 02:20:34;;;;;;;5.30;4.60;;;25.80;97.40;;;;;;5019867;28;20436;-89
2022/07/04 02:23:00;;;;;;;6.33;4.87;;;25.80;97.30;;;;;;5019147;28;20446;-88
2022/07/04 02:25:26;;;;;;;6.40;3.80;;;25.80;97.40;;;;;;5026353;28;20489;-96
2022/07/04 02:27:52;;;;;;;8.93;4.97;;;25.70;97.40;;;;;;5020226;28;20503;-96
2022/07/04 02:30:18;;;;;;;5.70;5.20;;;25.80;97.30;;;;;;5020590;28;20181;-93
2022/07/04 02:32:43;;;;;;;5.47;4.53;;;25.70;97.20;;;;;;5018838;28;20200;-95
2022/07/04 02:35:10;;;;;;;6.30;4.60;;;25.70;97.50;;;;;;5019119;28;20823;-95
2022/07/04 02:37:36;;;;;;;7.30;4.83;;;25.70;97.20;;;;;;5020489;28;20655;-96
2022/07/04 02:40:03;;;;;;;5.07;4.57;;;25.70;97.20;;;;;;5019510;28;20507;-96
2022/07/04 02:42:30;;;;;;;5.60;4.13;;;25.70;97.10;;;;;;5019054;28;20514;-95
2022/07/04 02:44:56;;;;;;;8.47;4.73;;;25.70;97.20;;;;;;5017639;28;20436;-88
2022/07/04 02:47:21;;;;;;;5.50;4.90;;;25.60;97.20;;;;;;5018295;28;20470;-96
2022/07/04 02:49:47;;;;;;;8.57;4.90;;;25.60;97.20;;;;;;5019284;28;20231;-89
2022/07/04 02:52:13;;;;;;;4.40;4.00;;;25.60;97.20;;;;;;5019480;28;20310;-96
2022/07/04 02:54:39;;;;;;;6.80;4.50;;;25.60;97.30;;;;;;5001838;28;20210;-96
2022/07/04 02:57:05;;;;;;;8.30;5.00;;;25.60;97.30;;;;;;5019750;28;20428;-89
2022/07/04 02:59:30;;;;;;;5.53;4.37;;;25.60;97.50;;;;;;5005881;28;20198;-96
2022/07/04 03:01:56;;;;;;;4.53;4.10;;;25.60;97.50;;;;;;5014831;28;20440;-88
2022/07/04 03:04:22;;;;;;;4.23;3.83;;;25.60;97.60;;;;;;4999824;28;20546;-88
2022/07/04 03:06:47;;;;;;;5.67;4.53;;;25.60;97.60;;;;;;5017712;28;20191;-96
2022/07/04 03:09:13;;;;;;;7.73;4.80;;;25.50;97.80;;;;;;5001866;28;20538;-95
2022/07/04 03:11:38;;;;;;;4.57;4.13;;;25.60;97.50;;;;;;5000082;28;20230;-88
2022/07/04 03:14:04;;;;;;;4.80;4.40;;;25.50;97.50;;;;;;5000192;28;20212;-96
2022/07/04 03:16:30;;;;;;;4.63;4.10;;;25.50;97.50;;;;;;5001021;28;20710;-96
2022/07/04 03:18:55;;;;;;;5.67;4.43;;;25.50;97.60;;;;;;5000774;28;20192;-88
2022/07/04 03:21:21;;;;;;;4.97;4.53;;;25.50;97.50;;;;;;4999928;28;20253;-88
2022/07/04 03:23:57;;;;;;;4.83;4.33;;;25.50;97.90;;;;;;5017116;28;20239;-88
2022/07/04 03:26:32;;;;;;;4.53;4.13;;;25.50;97.50;;;;;;4999079;28;20295;-88
2022/07/04 03:28:59;;;;;;;7.37;3.90;;;25.50;97.50;;;;;;5017296;28;20422;-88
2022/07/04 03:31:26;;;;;;;5.23;4.00;;;25.50;97.80;;;;;;4999284;28;20976;-88
2022/07/04 03:33:52;;;;;;;5.70;4.30;;;25.40;97.50;;;;;;5000285;28;20432;-96
2022/07/04 03:36:18;;;;;;;5.77;4.40;;;25.40;97.50;;;;;;5000672;28;20464;-96
2022/07/04 03:38:44;;;;;;;5.50;4.30;;;25.40;97.50;;;;;;5018284;28;20400;-88
2022/07/04 03:41:10;;;;;;;4.20;3.80;;;25.40;97.50;;;;;;5000524;28;20954;-96
2022/07/04 03:43:36;;;;;;;4.90;4.00;;;25.40;97.30;;;;;;4999748;28;20450;-89
2022/07/04 03:46:02;;;;;;;4.30;3.90;;;25.40;97.30;;;;;;5001013;28;20436;-88
2022/07/04 03:48:28;;;;;;;5.27;3.97;;;25.40;97.30;;;;;;5000454;28;20929;-96
2022/07/04 03:50:54;;;;;;;6.03;4.30;;;25.50;97.40;;;;;;5000633;28;20440;-88
2022/07/04 03:53:20;;;;;;;4.70;4.17;;;25.50;97.40;;;;;;5017500;28;20194;-96
2022/07/04 03:55:46;;;;;;;4.20;3.80;;;25.50;97.40;;;;;;5000778;28;20479;-95
2022/07/04 03:58:12;;;;;;;5.90;4.03;;;25.50;97.60;;;;;;5000653;28;20462;-89
2022/07/04 04:00:37;;;;;;;4.40;3.93;;;25.50;97.30;;;;;;5001288;28;20220;-96
2022/07/04 04:05:25;;;;;;;7.10;4.57;;;25.50;97.50;;;;;;5001339;28;20202;-88
2022/07/04 04:05:49;;;;;;;3.90;3.37;;;25.50;97.80;;;;;;5017174;28;20186;-88
2022/07/04 04:08:14;;;;;;;6.40;4.27;;;25.50;97.50;;;;;;5000299;28;20804;-96
2022/07/04 04:10:40;;;;;;;5.67;4.03;;;25.50;97.40;;;;;;5018060;28;20199;-96
2022/07/04 04:13:06;;;;;;;4.60;4.20;;;25.50;97.50;;;;;;5005855;28;20218;-88
2022/07/04 04:15:31;;;;;;;4.60;4.07;;;25.60;97.50;;;;;;4999865;28;20662;-96
2022/07/04 04:17:57;;;;;;;4.57;3.97;;;25.60;97.50;;;;;;4998265;28;20209;-88
2022/07/04 04:20:23;;;;;;;7.00;3.80;;;25.60;97.60;;;;;;4999608;28;20237;-88
2022/07/04 04:22:50;;;;;;;5.33;3.73;;;25.60;97.50;;;;;;4998350;28;20245;-95
2022/07/04 04:25:16;;;;;;;4.80;3.67;;;25.60;97.50;;;;;;4999118;28;20638;-88
2022/07/04 04:27:41;;;;;;;6.23;4.10;;;25.60;97.80;;;;;;5015927;28;20428;-88
2022/07/04 04:30:07;;;;;;;6.00;4.13;;;25.60;97.50;;;;;;4997873;28;20582;-94
2022/07/04 04:32:33;;;;;;;3.83;3.37;;;25.60;97.60;;;;;;4998129;28;20573;-88
2022/07/04 04:34:59;;;;;;;4.90;3.90;;;25.60;97.50;;;;;;5015996;28;20476;-88
2022/07/04 04:37:24;;;;;;;4.30;3.90;;;25.60;97.50;;;;;;4997001;28;20210;-96
2022/07/04 04:39:50;;;;;;;4.43;3.90;;;25.60;97.50;;;;;;5015834;28;20191;-88
2022/07/04 04:42:16;;;;;;;4.53;3.50;;;25.60;97.80;;;;;;5014872;28;20329;-88
2022/07/04 04:44:41;;;;;;;5.43;4.40;;;25.60;97.90;;;;;;4997747;28;20187;-96
2022/07/04 04:47:07;;;;;;;7.93;6.47;;;25.70;98.10;;;;;;4997462;28;20672;-89
2022/07/04 04:49:33;;;;;;;4.27;3.87;;;25.70;98.10;;;;;;5005736;28;20238;-96
2022/07/04 04:51:58;;;;;;;6.17;3.77;;;25.70;98.20;;;;;;5014541;28;20187;-96
2022/07/04 04:54:24;;;;;;;4.73;4.23;;;25.70;98.20;;;;;;5013788;28;20191;-88
2022/07/04 04:56:50;;;;;;;4.00;3.50;;;25.70;98.20;;;;;;5012935;28;20213;-96
2022/07/04 04:59:15;;;;;;;5.53;3.70;;;25.80;98.30;;;;;;5013869;28;20191;-88
2022/07/04 05:01:41;;;;;;;5.13;4.10;;;25.80;98.30;;;;;;5013876;28;20608;-88
2022/07/04 05:04:06;;;;;;;6.63;3.93;;;25.80;98.30;;;;;;5030554;28;20187;-94
2022/07/04 05:06:32;;;;;;;5.13;4.50;;;25.80;98.30;;;;;;5013739;28;20572;-90
2022/07/04 05:08:58;;;;;;;4.70;3.70;;;25.90;98.20;;;;;;4999622;28;20197;-88
2022/07/04 05:11:23;;;;;;;4.10;3.70;;;25.90;98.20;;;;;;5009775;28;20206;-87
2022/07/04 05:13:49;;;;;;;3.70;3.40;;;26.00;98.20;;;;;;5013873;28;20203;-94
2022/07/04 05:16:15;;;;;;;3.57;3.27;;;26.00;98.10;;;;;;5013223;28;20632;-93
2022/07/04 05:18:40;;;;;;;3.90;3.00;;;26.10;98.00;;;;;;5012769;28;20342;-92
2022/07/04 05:21:06;;;;;;;4.30;3.03;;;26.10;98.00;;;;;;5013676;28;20183;-91
2022/07/04 05:23:32;;;;;;;4.70;3.80;;;26.20;98.10;;;;;;5014607;28;20307;-92
2022/07/04 05:25:58;;;;;;;3.80;3.50;;;26.20;98.10;;;;;;5015142;28;20174;-92
2022/07/04 05:28:23;;;;;;;5.40;3.30;;;26.20;98.10;;;;;;5015207;28;21027;-91
2022/07/04 05:30:49;;;;;;;7.10;4.20;;;26.30;98.10;;;;;;5028538;28;20199;-92
2022/07/04 05:33:15;;;;;;;5.07;4.00;;;26.30;97.90;;;;;;5033953;28;20242;-93
2022/07/04 05:35:41;;;;;;;4.30;3.90;;;26.40;98.00;;;;;;5026977;28;20230;-92
2022/07/04 05:38:06;;;;;;;3.77;3.43;;;26.40;98.00;;;;;;5013595;28;20210;-95
2022/07/04 05:40:32;;;;;;;4.90;4.17;;;26.40;97.60;;;;;;5026321;28;20551;-91
2022/07/04 05:42:58;;;;;;;3.67;3.37;;;26.50;97.80;;;;;;5011969;28;20695;-94
2022/07/04 05:45:30;;;;;;;4.70;4.20;;;26.60;97.50;;;;;;5014291;28;20432;-92
2022/07/04 05:47:55;;;;;;;4.13;3.60;;;26.60;97.30;;;;;;5013669;28;20202;-93
2022/07/04 05:50:27;;;;;;;18.10;4.50;;;26.60;96.90;;;;;;5013975;28;20547;-92
2022/07/04 05:52:53;;;;;;;3.53;3.23;;;26.70;96.90;;;;;;4996493;28;20203;-92
2022/07/04 05:55:18;;;;;;;4.00;2.93;;;26.80;97.20;;;;;;5006627;28;20817;-93
2022/07/04 05:57:45;;;;;;;3.73;3.40;;;26.80;97.00;;;;;;5015724;28;20290;-92
2022/07/04 06:00:12;;;;;;;3.63;3.33;;;26.90;97.20;;;;;;4993007;28;20453;-93
2022/07/04 06:02:37;;;;;;;4.80;3.80;;;26.90;97.20;;;;;;5002942;28;20474;-91
2022/07/04 06:05:04;;;;;;;3.90;3.60;;;26.90;97.20;;;;;;5009746;28;20448;-90
2022/07/04 06:07:30;;;;;;;3.43;3.07;;;27.00;96.90;;;;;;4990600;28;20262;-89
2022/07/04 06:09:55;;;;;;;3.20;3.00;;;27.10;96.60;;;;;;4994161;28;20496;-92
2022/07/04 06:12:21;;;;;;;3.50;3.00;;;27.10;96.30;;;;;;5001514;28;20565;-93
2022/07/04 06:14:47;;;;;;;3.27;3.03;;;27.20;96.10;;;;;;5006185;28;20472;-93
2022/07/04 06:17:13;;;;;;;8.77;4.13;;;27.30;96.10;;;;;;5015242;28;20253;-95
2022/07/04 06:19:39;;;;;;;3.77;3.40;;;27.40;96.00;;;;;;4995794;28;20218;-92
2022/07/04 06:22:05;;;;;;;4.13;3.73;;;27.50;95.60;;;;;;4990907;28;20210;-92
2022/07/04 06:24:30;;;;;;;3.10;2.80;;;27.60;95.50;;;;;;5003564;28;20445;-93
2022/07/04 06:26:56;;;;;;;3.50;3.20;;;27.70;94.90;;;;;;5003450;28;20211;-93
2022/07/04 06:29:22;;;;;;;2.83;2.63;;;27.80;94.20;;;;;;5006028;28;20242;-90
2022/07/04 06:31:48;;;;;;;3.13;2.90;;;27.90;94.50;;;;;;4994203;28;20214;-91
2022/07/04 06:37:01;;;;;;;2.43;2.23;;;28.10;92.50;;;;;;5014377;28;20214;-90
2022/07/04 06:39:26;;;;;;;3.10;2.80;;;28.20;92.80;;;;;;4997650;28;21005;-91
2022/07/04 06:41:52;;;;;;;3.00;2.80;;;28.30;92.70;;;;;;4996620;28;20456;-91
2022/07/04 06:44:18;;;;;;;3.00;2.80;;;28.40;92.10;;;;;;5011781;28;20183;-91
2022/07/04 06:46:45;;;;;;;2.60;2.40;;;28.50;91.80;;;;;;5010650;28;20229;-92
2022/07/04 06:49:10;;;;;;;2.77;2.50;;;28.60;92.00;;;;;;4986592;28;20228;-93
2022/07/04 06:51:36;;;;;;;3.00;2.70;;;28.70;92.20;;;;;;5013684;28;20442;-91
2022/07/04 06:54:02;;;;;;;3.70;2.93;;;28.70;92.60;;;;;;4994125;28;20194;-91
2022/07/04 06:56:28;;;;;;;3.17;2.70;;;28.80;91.70;;;;;;5005578;28;20309;-91
2022/07/04 06:58:53;;;;;;;3.10;2.80;;;28.80;92.80;;;;;;4990987;28;20412;-91
2022/07/04 07:01:19;;;;;;;2.70;2.23;;;28.90;92.80;;;;;;5005623;28;20182;-93
2022/07/04 07:03:45;;;;;;;2.73;2.53;;;28.90;92.10;;;;;;5008027;28;20312;-94
2022/07/04 07:06:10;;;;;;;3.27;2.97;;;28.90;92.50;;;;;;5011942;28;20181;-91
2022/07/04 07:08:36;;;;;;;2.40;2.20;;;29.00;92.60;;;;;;4994574;28;20267;-88
2022/07/04 07:11:14;;;;;;;5.63;2.80;;;29.00;91.90;;;;;;4997060;28;20182;-92
2022/07/04 07:13:48;;;;;;;1.90;1.80;;;29.10;92.30;;;;;;5014328;28;20245;-94
2022/07/04 07:16:14;;;;;;;2.43;2.23;;;29.10;92.30;;;;;;4995000;28;20470;-94
2022/07/04 07:18:40;;;;;;;2.67;2.47;;;29.10;92.30;;;;;;4996326;28;20418;-95
2022/07/04 07:21:05;;;;;;;2.80;2.50;;;29.10;92.30;;;;;;4998139;28;20699;-92
2022/07/04 07:23:31;;;;;;;2.80;2.60;;;29.10;92.20;;;;;;5004450;28;20218;-92
2022/07/04 07:25:57;;;;;;;3.07;2.80;;;29.10;92.20;;;;;;5001330;28;20439;-91
2022/07/04 07:28:23;;;;;;;2.10;2.00;;;29.20;92.20;;;;;;5013103;28;20201;-91
2022/07/04 07:30:48;;;;;;;4.27;2.63;;;29.20;92.00;;;;;;5012935;28;20572;-91
2022/07/04 07:33:14;;;;;;;2.60;2.40;;;29.40;92.00;;;;;;5014213;28;20301;-93
2022/07/04 07:35:40;;;;;;;2.50;2.30;;;29.30;91.90;;;;;;4996918;28;20213;-91
2022/07/04 07:38:06;;;;;;;2.63;2.43;;;29.40;91.70;;;;;;5013097;28;20278;-93
2022/07/04 07:40:32;;;;;;;2.73;2.53;;;29.50;91.70;;;;;;4997170;28;20223;-96
2022/07/04 07:42:58;;;;;;;2.60;2.40;;;29.60;91.20;;;;;;4993929;28;20744;-93
2022/07/04 07:45:24;;;;;;;4.00;2.40;;;29.70;91.40;;;;;;5014340;28;20228;-95
2022/07/04 07:47:49;;;;;;;3.70;2.43;;;29.60;91.70;;;;;;4996187;28;20196;-91
2022/07/04 07:50:15;;;;;;;5.33;2.37;;;29.60;91.70;;;;;;5013845;28;20287;-92
2022/07/04 07:52:41;;;;;;;2.40;2.20;;;29.50;92.10;;;;;;5004916;28;20202;-91
2022/07/04 07:55:07;;;;;;;2.90;2.70;;;29.50;91.80;;;;;;4993293;28;20481;-91
2022/07/04 07:57:33;;;;;;;3.03;2.73;;;29.50;92.00;;;;;;5001757;28;20206;-92
2022/07/04 07:59:59;;;;;;;2.43;2.20;;;29.60;91.70;;;;;;4989632;28;20433;-94
2022/07/04 08:05:16;;;;;;;4.13;2.87;;;29.70;91.70;;;;;;5010187;28;20500;-90
2022/07/04 08:07:42;;;;;;;3.07;2.80;;;29.70;91.80;;;;;;5003608;28;20435;-91
2022/07/04 08:10:08;;;;;;;2.80;2.60;;;29.80;91.50;;;;;;4996306;28;20916;-92
2022/07/04 08:12:36;;;;;;;2.73;2.07;;;29.90;92.10;;;;;;4992795;28;20329;-92
2022/07/04 08:15:02;;;;;;;2.70;2.50;;;29.90;91.80;;;;;;4999035;28;20461;-92
2022/07/04 08:17:28;;;;;;;4.10;2.43;;;29.80;91.60;;;;;;4996035;28;20456;-87
2022/07/04 08:19:54;;;;;;;2.17;2.07;;;29.80;91.70;;;;;;5017761;28;20435;-90
2022/07/04 08:22:20;;;;;;;2.00;1.90;;;29.90;91.70;;;;;;5018453;28;20488;-93
2022/07/04 08:24:47;;;;;;;2.23;2.03;;;30.00;91.40;;;;;;5012398;28;20190;-91
2022/07/04 08:27:13;;;;;;;2.50;2.30;;;30.00;91.40;;;;;;5012906;28;20450;-94
2022/07/04 08:29:40;;;;;;;3.60;2.53;;;30.10;90.30;;;;;;5013046;28;20442;-95
2022/07/04 08:32:07;;;;;;;3.03;2.77;;;30.20;91.20;;;;;;5011134;28;20446;-94
2022/07/04 08:34:34;;;;;;;4.40;2.20;;;30.30;90.90;;;;;;4993926;28;20517;-92
2022/07/04 08:37:00;;;;;;;3.93;2.20;;;30.40;90.00;;;;;;4995317;28;20451;-91
2022/07/04 08:39:27;;;;;;;2.83;1.83;;;30.50;88.90;;;;;;4995557;28;20428;-93
2022/07/04 08:41:56;;;;;;;2.63;2.43;;;30.70;88.20;;;;;;5010290;28;20482;-92
2022/07/04 08:44:25;;;;;;;2.33;2.20;;;30.80;86.30;;;;;;4996014;28;20524;-89
2022/07/04 08:46:54;;;;;;;3.13;2.40;;;30.80;89.10;;;;;;4993125;28;20448;-93
2022/07/04 08:49:29;;;;;;;11.43;2.30;;;30.90;90.00;;;;;;5002349;28;20474;-93
2022/07/04 08:52:08;;;;;;;3.60;2.27;;;31.00;88.30;;;;;;5014440;28;20439;-93
2022/07/04 09:00:06;;;;;;;2.00;1.80;;;31.20;84.30;;;;;;5007180;28;20466;-90
2022/07/04 09:02:34;;;;;;;3.97;2.40;;;31.20;87.80;;;;;;5009383;28;20451;-91
2022/07/04 09:04:59;;;;;;;2.60;2.40;;;31.20;88.80;;;;;;5010962;28;20521;-93
2022/07/04 09:07:28;;;;;;;4.03;1.50;;;31.20;86.70;;;;;;5011577;28;20520;-89
2022/07/04 09:09:54;;;;;;;2.20;1.97;;;31.20;89.00;;;;;;5012101;28;20202;-91
2022/07/04 09:12:20;;;;;;;2.33;2.13;;;31.30;84.10;;;;;;4997963;28;20480;-92
2022/07/04 09:14:46;;;;;;;1.90;1.80;;;31.30;88.30;;;;;;5012069;28;20552;-92
2022/07/04 09:17:12;;;;;;;2.40;2.20;;;31.20;89.70;;;;;;5012579;28;20244;-89
2022/07/04 09:19:38;;;;;;;3.07;2.13;;;31.10;89.80;;;;;;5011775;28;20465;-93
2022/07/04 09:22:11;;;;;;;1.83;1.73;;;31.00;89.90;;;;;;5013169;28;20474;-95
2022/07/04 09:24:45;;;;;;;2.57;2.27;;;31.00;87.90;;;;;;5013604;28;20193;-92
2022/07/04 09:27:11;;;;;;;2.37;2.17;;;31.10;89.70;;;;;;5010276;28;20462;-93
2022/07/04 09:29:55;;;;;;;1.80;1.70;;;31.20;89.10;;;;;;5006635;28;20435;-91
2022/07/04 09:32:41;;;;;;;2.50;2.30;;;31.20;89.20;;;;;;5005383;28;20469;-90
2022/07/04 09:35:12;;;;;;;2.20;2.00;;;31.10;89.60;;;;;;5024161;28;20478;-93
2022/07/04 09:37:46;;;;;;;2.37;2.17;;;31.20;89.70;;;;;;5005201;28;20501;-90
2022/07/04 09:40:31;;;;;;;2.10;1.90;;;31.40;87.10;;;;;;5007415;28;20523;-90
2022/07/04 09:42:59;;;;;;;2.23;2.03;;;31.60;83.30;;;;;;4992483;28;20503;-89
2022/07/04 09:45:26;;;;;;;2.10;2.00;;;31.60;86.80;;;;;;5009056;28;20429;-88
2022/07/04 09:47:57;;;;;;;2.47;2.27;;;31.70;82.20;;;;;;5007374;28;20885;-92
2022/07/04 09:50:25;;;;;;;2.93;2.30;;;31.80;86.20;;;;;;5024835;28;20551;-91
2022/07/04 09:52:53;;;;;;;2.33;2.13;;;31.90;82.50;;;;;;5007746;28;20471;-91
2022/07/04 09:55:26;;;;;;;2.63;2.30;;;32.00;80.80;;;;;;5004986;28;20468;-90
2022/07/04 09:57:53;;;;;;;2.23;2.03;;;32.10;81.10;;;;;;5018667;28;20460;-90
2022/07/04 10:00:27;;;;;;;2.63;2.43;;;32.30;78.60;;;;;;5013046;28;20445;-91
2022/07/04 10:03:14;;;;;;;2.20;2.00;;;32.40;78.70;;;;;;5017122;28;20489;-90
2022/07/04 10:05:40;;;;;;;2.00;1.90;;;32.40;81.30;;;;;;5004004;28;20444;-92
2022/07/04 10:08:06;;;;;;;2.33;2.13;;;32.40;83.50;;;;;;5004214;28;20522;-93
2022/07/04 10:10:38;;;;;;;2.60;2.10;;;32.50;77.60;;;;;;5003289;28;20190;-93
2022/07/04 10:13:10;;;;;;;1.97;1.87;;;32.60;77.30;;;;;;5004605;28;20502;-91
2022/07/04 10:15:40;;;;;;;2.97;2.60;;;32.70;76.70;;;;;;5007638;28;20495;-93
2022/07/04 10:18:08;;;;;;;2.50;2.30;;;32.70;82.30;;;;;;5027143;28;20440;-91
2022/07/04 10:20:34;;;;;;;3.40;3.10;;;32.60;81.80;;;;;;5023427;28;20907;-92
2022/07/04 10:23:00;;;;;;;2.23;1.97;;;32.50;84.00;;;;;;4992915;28;20565;-92
2022/07/04 10:25:27;;;;;;;2.97;2.77;;;32.40;84.60;;;;;;5006344;28;20436;-91
2022/07/04 10:27:52;;;;;;;3.03;2.30;;;32.60;80.00;;;;;;5008120;28;20518;-93
2022/07/04 10:30:26;;;;;;;2.23;2.13;;;32.60;78.40;;;;;;5006532;28;20420;-91
2022/07/04 10:32:53;;;;;;;3.83;2.33;;;32.80;78.40;;;;;;5010545;28;20310;-92
2022/07/04 10:35:48;;;;;;;2.50;2.30;;;32.90;78.10;;;;;;5006599;28;20804;-91
2022/07/04 10:38:14;;;;;;;2.40;2.20;;;32.80;82.00;;;;;;5008228;28;20440;-91
2022/07/04 10:40:44;;;;;;;2.60;2.20;;;32.70;82.50;;;;;;5023757;28;20444;-91
2022/07/04 10:43:48;;;;;;;4.50;2.23;;;32.60;82.00;;;;;;5016280;28;20436;-93
2022/07/04 10:46:14;;;;;;;3.70;2.60;;;32.70;81.70;;;;;;4985956;28;20449;-95
2022/07/04 10:48:49;;;;;;;2.37;2.17;;;32.80;81.30;;;;;;5011934;28;21044;-92
2022/07/04 10:51:23;;;;;;;2.30;2.10;;;32.80;79.80;;;;;;5019337;28;20222;-92
2022/07/04 10:54:21;;;;;;;2.30;2.20;;;32.80;81.30;;;;;;5009612;28;20428;-94
2022/07/04 10:56:54;;;;;;;2.60;2.40;;;32.70;81.20;;;;;;5026366;28;20523;-94
2022/07/04 10:59:30;;;;;;;2.70;2.47;;;32.70;82.30;;;;;;5005800;28;20459;-91
2022/07/04 11:02:08;;;;;;;2.87;2.47;;;32.70;82.70;;;;;;5013182;28;20482;-91
2022/07/04 11:04:53;;;;;;;2.17;2.07;;;32.60;83.60;;;;;;5026362;28;20449;-90
2022/07/04 11:07:22;;;;;;;3.20;2.43;;;32.60;81.70;;;;;;5024674;28;20464;-87
2022/07/04 11:10:16;;;;;;;2.33;2.13;;;32.70;80.00;;;;;;5007499;28;20516;-91
2022/07/04 11:12:53;;;;;;;2.27;2.10;;;32.80;80.80;;;;;;5009614;28;20809;-88
2022/07/04 11:15:28;;;;;;;2.50;2.30;;;32.80;83.00;;;;;;5020632;28;20463;-91
2022/07/04 11:17:57;;;;;;;1.90;1.80;;;32.70;84.20;;;;;;5023564;28;20478;-91
2022/07/04 11:20:25;;;;;;;5.60;2.47;;;32.60;83.50;;;;;;5009962;28;20470;-87
2022/07/04 11:22:50;;;;;;;2.30;2.20;;;32.60;82.00;;;;;;5010553;28;20474;-88
2022/07/04 11:25:17;;;;;;;2.90;2.60;;;32.60;83.00;;;;;;5008114;28;20815;-91
2022/07/04 11:27:43;;;;;;;1.83;1.73;;;32.60;83.30;;;;;;5011007;28;20385;-89
2022/07/04 11:30:10;;;;;;;2.43;2.23;;;32.80;79.60;;;;;;5012607;28;20421;-88
2022/07/04 11:32:38;;;;;;;2.00;1.90;;;32.90;79.70;;;;;;5007759;28;20819;-89
2022/07/04 11:35:05;;;;;;;2.00;1.90;;;32.80;79.60;;;;;;5005444;28;20550;-91
2022/07/04 11:37:31;;;;;;;4.33;2.00;;;32.70;82.70;;;;;;5006737;28;20457;-92
2022/07/04 11:45:52;;;;;;;1.70;1.60;;;32.70;80.00;;;;;;5004462;28;20487;-90
2022/07/04 11:48:24;;;;;;;4.73;1.90;;;32.60;81.90;;;;;;5007172;28;20551;-91
2022/07/04 11:50:50;;;;;;;2.13;1.93;;;32.60;83.20;;;;;;5007583;28;20518;-91
2022/07/04 11:53:17;;;;;;;2.40;2.20;;;32.70;81.30;;;;;;5012643;28;20470;-90
2022/07/04 11:56:01;;;;;;;2.40;2.13;;;32.70;81.60;;;;;;5010077;28;20476;-92
2022/07/04 11:58:39;;;;;;;2.40;2.20;;;32.80;81.60;;;;;;5007693;28;20485;-90
2022/07/04 12:01:05;;;;;;;7.20;2.20;;;32.70;83.10;;;;;;5010300;28;20828;-91
2022/07/04 12:03:33;;;;;;;2.80;2.47;;;32.60;82.90;;;;;;5011568;28;20456;-92
2022/07/04 12:06:02;;;;;;;2.13;1.93;;;32.60;83.40;;;;;;5011387;28;20211;-90
2022/07/04 12:08:28;;;;;;;2.60;2.40;;;32.60;83.50;;;;;;4991692;28;20425;-93
2022/07/04 12:10:54;;;;;;;2.50;2.30;;;32.50;79.30;;;;;;4993405;28;20436;-89
2022/07/04 12:13:20;;;;;;;2.30;2.10;;;32.70;80.10;;;;;;4993101;28;20457;-93
2022/07/04 12:15:49;;;;;;;2.60;2.40;;;32.70;82.30;;;;;;5006139;28;20306;-93
2022/07/04 12:18:28;;;;;;;4.33;3.00;;;32.70;80.20;;;;;;4996604;28;20510;-92
2022/07/04 12:20:54;;;;;;;3.00;2.37;;;32.80;81.10;;;;;;5006466;28;20436;-90
2022/07/04 12:23:26;;;;;;;2.80;2.60;;;32.90;81.40;;;;;;5009604;28;20526;-91
2022/07/04 12:25:52;;;;;;;2.90;2.60;;;32.90;82.10;;;;;;4995041;28;20459;-92
2022/07/04 12:28:18;;;;;;;3.03;2.30;;;32.90;81.80;;;;;;4995324;28;20464;-91
2022/07/04 12:30:58;;;;;;;2.67;2.47;;;32.90;80.90;;;;;;5000628;28;20523;-89
2022/07/04 12:33:26;;;;;;;2.73;2.00;;;32.90;81.40;;;;;;4989442;28;20464;-91
2022/07/04 12:35:53;;;;;;;2.53;2.33;;;32.90;81.30;;;;;;5012515;28;20467;-91
2022/07/04 12:38:27;;;;;;;2.33;2.10;;;32.90;78.30;;;;;;5008317;28;20484;-90
2022/07/04 12:40:54;;;;;;;2.87;2.10;;;33.00;77.80;;;;;;5007917;28;20467;-92
2022/07/04 12:43:25;;;;;;;4.20;3.00;;;33.00;79.80;;;;;;5014460;28;20538;-90
2022/07/04 12:45:56;;;;;;;2.80;2.53;;;33.00;78.00;;;;;;4990890;28;20456;-90
2022/07/04 12:48:25;;;;;;;2.50;2.30;;;33.10;79.70;;;;;;5008503;28;20461;-92
2022/07/04 12:50:52;;;;;;;2.40;2.17;;;33.10;79.60;;;;;;5007656;28;20460;-90
2022/07/04 12:53:19;;;;;;;3.37;2.40;;;33.10;79.00;;;;;;5001198;28;20487;-91
2022/07/04 12:55:46;;;;;;;2.70;2.50;;;33.10;78.20;;;;;;4992300;28;20495;-90
2022/07/04 12:58:13;;;;;;;2.70;2.50;;;33.10;79.60;;;;;;5012993;28;20448;-93
2022/07/04 13:00:40;;;;;;;2.40;2.20;;;33.10;79.70;;;;;;4991942;28;20801;-91
2022/07/04 13:03:06;;;;;;;2.60;2.40;;;33.20;79.90;;;;;;4996939;28;20468;-91
2022/07/04 13:05:37;;;;;;;2.77;2.57;;;33.20;78.20;;;;;;5009691;28;20439;-88
2022/07/04 13:08:03;;;;;;;2.27;2.07;;;33.20;76.60;;;;;;5005852;28;20518;-91
2022/07/04 13:10:32;;;;;;;2.73;2.37;;;33.20;78.90;;;;;;5010373;28;20401;-92